createdAt,value
2017-11-25T00:00:45.794Z,3.45
2017-11-25T00:03:13.277Z,3.25
2017-11-25T00:05:40.737Z,3.27
2017-11-25T00:08:08.223Z,3.23
2017-11-25T00:10:35.701Z,3.32
2017-11-25T00:13:03.171Z,3.44
2017-11-25T00:15:30.662Z,3.29
2017-11-25T00:17:58.142Z,3.47
2017-11-25T00:20:25.627Z,3.25
2017-11-25T00:22:53.087Z,3.28
2017-11-25T00:25:20.574Z,3.21
2017-11-25T00:27:48.041Z,3.26
2017-11-25T00:30:15.541Z,3.05
2017-11-25T00:32:43.011Z,3.35
2017-11-25T00:35:10.501Z,3.08
2017-11-25T00:37:38.004Z,2.97
2017-11-25T00:40:05.467Z,3.05
2017-11-25T00:42:32.933Z,2.95
2017-11-25T00:45:00.435Z,3.02
2017-11-25T00:47:27.919Z,3.01
2017-11-25T00:49:55.386Z,3.02
2017-11-25T00:52:22.893Z,3.02
2017-11-25T00:54:50.355Z,2.94
2017-11-25T00:57:18.028Z,3.11
2017-11-25T00:59:45.491Z,2.90
2017-11-25T01:02:12.959Z,2.96
2017-11-25T01:04:40.457Z,3.27
2017-11-25T01:07:07.921Z,3.17
2017-11-25T01:09:35.395Z,2.93
2017-11-25T01:12:03.000Z,2.97
2017-11-25T01:14:30.470Z,2.94
2017-11-25T01:16:57.943Z,2.93
2017-11-25T01:19:25.443Z,2.89
2017-11-25T01:21:53.210Z,3.02
2017-11-25T01:24:20.673Z,2.91
2017-11-25T01:26:48.170Z,3.12
2017-11-25T01:29:15.659Z,3.22
2017-11-25T01:31:43.170Z,3.01
2017-11-25T01:34:10.831Z,3.22
2017-11-25T01:36:38.289Z,3.18
2017-11-25T01:39:05.795Z,2.98
2017-11-25T01:41:33.260Z,2.96
2017-11-25T01:44:00.722Z,3.01
2017-11-25T01:46:28.211Z,2.96
2017-11-25T01:48:55.671Z,3.23
2017-11-25T01:51:23.158Z,2.91
2017-11-25T01:53:50.621Z,2.93
2017-11-25T01:56:18.207Z,2.99
2017-11-25T01:58:45.667Z,3.17
2017-11-25T02:01:13.133Z,3.12
2017-11-25T02:03:40.621Z,3.17
2017-11-25T02:06:08.143Z,3.02
2017-11-25T02:08:35.644Z,3.00
2017-11-25T02:11:03.103Z,2.94
2017-11-25T02:13:30.584Z,2.97
2017-11-25T02:15:58.051Z,2.93
2017-11-25T02:18:25.519Z,2.96
2017-11-25T02:20:53.062Z,2.96
2017-11-25T02:23:20.526Z,2.89
2017-11-25T02:25:47.996Z,3.03
2017-11-25T02:28:15.488Z,2.92
2017-11-25T02:30:42.970Z,2.97
2017-11-25T02:33:10.476Z,2.96
2017-11-25T02:35:37.981Z,2.89
2017-11-25T02:38:05.446Z,2.80
2017-11-25T02:40:32.906Z,2.98
2017-11-25T02:43:00.398Z,2.86
2017-11-25T02:45:27.883Z,2.78
2017-11-25T02:47:55.386Z,2.89
2017-11-25T02:50:22.855Z,2.84
2017-11-25T02:52:50.355Z,2.80
2017-11-25T02:55:17.828Z,3.05
2017-11-25T02:57:45.315Z,2.79
2017-11-25T03:00:12.803Z,2.84
2017-11-25T03:02:40.278Z,2.98
2017-11-25T03:05:07.766Z,3.17
2017-11-25T03:07:35.234Z,2.84
2017-11-25T03:10:02.701Z,2.84
2017-11-25T03:12:30.195Z,2.86
2017-11-25T03:14:57.660Z,3.02
2017-11-25T03:17:25.143Z,2.97
2017-11-25T03:19:52.615Z,2.98
2017-11-25T03:22:20.311Z,3.08
2017-11-25T03:24:47.774Z,2.86
2017-11-25T03:27:15.247Z,2.83
2017-11-25T03:29:42.734Z,2.84
2017-11-25T03:32:10.203Z,2.90
2017-11-25T03:34:37.691Z,3.08
2017-11-25T03:37:05.152Z,3.21
2017-11-25T03:39:32.646Z,2.93
2017-11-25T03:42:00.110Z,3.15
2017-11-25T03:44:27.614Z,3.12
2017-11-25T03:46:55.118Z,3.04
2017-11-25T03:49:22.582Z,2.88
2017-11-25T03:51:50.061Z,2.81
2017-11-25T03:54:17.570Z,3.01
2017-11-25T03:56:45.051Z,3.16
2017-11-25T03:59:12.569Z,3.28
2017-11-25T04:01:40.029Z,3.18
2017-11-25T04:04:07.499Z,3.17
2017-11-25T04:06:35.119Z,3.07
2017-11-25T04:09:02.586Z,3.15
2017-11-25T04:11:30.076Z,3.07
2017-11-25T04:13:57.551Z,3.02
2017-11-25T04:16:25.051Z,3.04
2017-11-25T04:18:52.519Z,3.00
2017-11-25T04:21:19.980Z,2.99
2017-11-25T04:23:47.484Z,3.11
2017-11-25T04:26:14.962Z,3.11
2017-11-25T04:28:42.454Z,3.10
2017-11-25T04:31:09.935Z,3.18
2017-11-25T04:33:37.400Z,3.35
2017-11-25T04:36:04.863Z,3.21
2017-11-25T04:38:32.351Z,3.30
2017-11-25T04:41:00.222Z,3.25
2017-11-25T04:43:27.710Z,3.11
2017-11-25T04:45:55.180Z,3.25
2017-11-25T04:48:22.662Z,3.22
2017-11-25T04:50:50.157Z,3.22
2017-11-25T04:53:17.622Z,3.09
2017-11-25T04:55:45.102Z,3.26
2017-11-25T04:58:12.579Z,3.10
2017-11-25T05:00:40.050Z,3.09
2017-11-25T05:03:08.518Z,3.05
2017-11-25T05:05:36.488Z,3.09
2017-11-25T05:08:03.974Z,3.01
2017-11-25T05:10:31.431Z,3.15
2017-11-25T05:13:00.553Z,3.13
2017-11-25T05:15:28.014Z,3.23
2017-11-25T05:17:55.508Z,3.06
2017-11-25T05:20:23.004Z,3.07
2017-11-25T05:22:50.474Z,3.14
2017-11-25T05:25:17.971Z,3.12
2017-11-25T05:27:45.435Z,2.99
2017-11-25T05:30:12.921Z,3.07
2017-11-25T05:32:40.403Z,3.14
2017-11-25T05:35:07.867Z,3.14
2017-11-25T05:37:35.373Z,3.24
2017-11-25T05:40:02.851Z,3.22
2017-11-25T05:42:30.332Z,3.09
2017-11-25T05:44:57.815Z,3.14
2017-11-25T05:47:25.302Z,3.07
2017-11-25T05:49:52.782Z,2.96
2017-11-25T05:52:20.240Z,3.14
2017-11-25T05:54:47.728Z,3.13
2017-11-25T05:57:15.195Z,3.14
2017-11-25T05:59:42.683Z,3.26
2017-11-25T06:02:10.201Z,2.97
2017-11-25T06:04:37.674Z,2.99
2017-11-25T06:07:05.569Z,3.04
2017-11-25T06:09:33.032Z,3.01
2017-11-25T06:12:00.530Z,3.15
2017-11-25T06:14:28.015Z,2.93
2017-11-25T06:16:55.487Z,2.81
2017-11-25T06:19:22.969Z,2.82
2017-11-25T06:21:50.435Z,2.80
2017-11-25T06:24:17.924Z,3.11
2017-11-25T06:26:45.391Z,3.09
2017-11-25T06:29:13.023Z,2.96
2017-11-25T06:31:40.512Z,2.93
2017-11-25T06:34:08.007Z,2.83
2017-11-25T06:36:35.476Z,2.92
2017-11-25T06:39:03.049Z,3.01
2017-11-25T06:41:30.661Z,3.07
2017-11-25T06:43:58.159Z,3.00
2017-11-25T06:46:25.631Z,2.91
2017-11-25T06:48:53.108Z,3.03
2017-11-25T06:51:20.602Z,2.91
2017-11-25T06:53:48.078Z,2.83
2017-11-25T06:56:15.550Z,2.81
2017-11-25T06:58:43.055Z,3.01
2017-11-25T07:01:10.562Z,2.95
2017-11-25T07:03:38.038Z,3.01
2017-11-25T07:06:05.527Z,2.85
2017-11-25T07:08:33.085Z,2.98
2017-11-25T07:11:00.571Z,2.88
2017-11-25T07:13:28.050Z,2.83
2017-11-25T07:15:55.551Z,3.09
2017-11-25T07:18:23.047Z,2.87
2017-11-25T07:20:50.498Z,3.13
2017-11-25T07:23:17.955Z,3.09
2017-11-25T07:25:45.432Z,3.27
2017-11-25T07:28:12.917Z,2.97
2017-11-25T07:30:40.390Z,2.96
2017-11-25T07:33:07.875Z,3.01
2017-11-25T07:35:35.339Z,3.25
2017-11-25T07:38:02.838Z,3.06
2017-11-25T07:40:30.323Z,3.12
2017-11-25T07:42:57.928Z,3.12
2017-11-25T07:45:25.438Z,3.04
2017-11-25T07:47:52.903Z,3.19
2017-11-25T07:50:20.390Z,3.05
2017-11-25T07:52:47.878Z,3.22
2017-11-25T07:55:15.347Z,3.10
2017-11-25T07:57:42.843Z,3.15
2017-11-25T08:00:10.343Z,3.03
2017-11-25T08:02:37.803Z,3.23
2017-11-25T08:05:05.295Z,3.14
2017-11-25T08:07:32.765Z,3.24
2017-11-25T08:10:00.267Z,3.13
2017-11-25T08:12:27.779Z,3.33
2017-11-25T08:14:55.280Z,3.31
2017-11-25T08:17:22.773Z,3.24
2017-11-25T08:19:50.247Z,3.14
2017-11-25T08:22:17.741Z,3.13
2017-11-25T08:24:45.207Z,3.36
2017-11-25T08:27:12.680Z,3.47
2017-11-25T08:29:40.167Z,3.10
2017-11-25T08:32:07.626Z,3.62
2017-11-25T08:34:35.322Z,3.28
2017-11-25T08:37:02.796Z,3.24
2017-11-25T08:39:30.359Z,3.31
2017-11-25T08:41:57.834Z,3.30
2017-11-25T08:44:25.308Z,3.34
2017-11-25T08:46:52.802Z,3.25
2017-11-25T08:49:20.261Z,3.50
2017-11-25T08:51:47.814Z,3.32
2017-11-25T08:54:15.424Z,3.50
2017-11-25T08:56:42.913Z,3.50
2017-11-25T08:59:10.397Z,3.48
2017-11-25T09:01:37.862Z,3.67
2017-11-25T09:04:05.406Z,3.60
2017-11-25T09:06:32.856Z,3.85
2017-11-25T09:09:00.329Z,3.70
2017-11-25T09:11:27.810Z,3.96
2017-11-25T09:13:55.285Z,4.05
2017-11-25T09:16:22.774Z,4.20
2017-11-25T09:18:50.256Z,4.32
2017-11-25T09:21:17.732Z,4.07
2017-11-25T09:23:45.218Z,4.12
2017-11-25T09:26:12.703Z,4.36
2017-11-25T09:28:40.159Z,4.17
2017-11-25T09:31:07.645Z,4.19
2017-11-25T09:33:35.140Z,4.21
2017-11-25T09:36:02.601Z,4.43
2017-11-25T09:38:30.058Z,4.38
2017-11-25T09:40:57.550Z,4.29
2017-11-25T09:43:25.010Z,4.17
2017-11-25T09:45:52.479Z,4.01
2017-11-25T09:48:19.958Z,4.30
2017-11-25T09:50:47.414Z,4.34
2017-11-25T09:53:14.899Z,4.41
2017-11-25T09:55:42.350Z,4.02
2017-11-25T09:58:09.819Z,4.12
2017-11-25T10:00:37.300Z,4.19
2017-11-25T10:03:04.774Z,4.18
2017-11-25T10:05:32.260Z,4.19
2017-11-25T10:07:59.716Z,4.26
2017-11-25T10:10:27.178Z,4.29
2017-11-25T10:12:54.660Z,4.26
2017-11-25T10:15:22.138Z,4.25
2017-11-25T10:17:49.628Z,4.20
2017-11-25T10:20:17.085Z,4.26
2017-11-25T10:22:44.557Z,4.45
2017-11-25T10:25:12.040Z,4.25
2017-11-25T10:27:39.519Z,4.59
2017-11-25T10:30:07.007Z,4.55
2017-11-25T10:32:34.464Z,4.36
2017-11-25T10:35:01.962Z,4.42
2017-11-25T10:37:29.654Z,4.38
2017-11-25T10:39:57.132Z,4.21
2017-11-25T10:42:24.616Z,4.43
2017-11-25T10:44:52.071Z,4.38
2017-11-25T10:47:19.548Z,4.50
2017-11-25T10:49:47.041Z,4.50
2017-11-25T10:52:14.504Z,4.74
2017-11-25T10:54:41.981Z,4.70
2017-11-25T10:57:09.439Z,4.64
2017-11-25T10:59:36.960Z,4.57
2017-11-25T11:02:04.427Z,4.71
2017-11-25T11:04:31.908Z,4.61
2017-11-25T11:06:59.375Z,4.55
2017-11-25T11:09:26.874Z,4.71
2017-11-25T11:11:54.337Z,4.99
2017-11-25T11:14:21.819Z,5.20
2017-11-25T11:16:50.128Z,4.81
2017-11-25T11:19:17.678Z,4.74
2017-11-25T11:21:45.167Z,4.97
2017-11-25T11:24:12.637Z,4.90
2017-11-25T11:26:40.136Z,4.77
2017-11-25T11:29:07.641Z,5.29
2017-11-25T11:31:35.150Z,5.34
2017-11-25T11:34:02.631Z,5.27
2017-11-25T11:36:30.111Z,5.37
2017-11-25T11:38:57.577Z,5.35
2017-11-25T11:41:25.059Z,5.37
2017-11-25T11:43:52.515Z,5.62
2017-11-25T11:46:20.006Z,5.54
2017-11-25T11:48:47.466Z,5.44
2017-11-25T11:51:14.954Z,5.37
2017-11-25T11:53:42.445Z,5.10
2017-11-25T11:56:09.922Z,5.12
2017-11-25T11:58:37.429Z,4.99
2017-11-25T12:01:04.896Z,5.21
2017-11-25T12:03:32.379Z,4.99
2017-11-25T12:05:59.854Z,4.83
2017-11-25T12:08:27.358Z,4.98
2017-11-25T12:10:54.839Z,4.97
2017-11-25T12:13:22.304Z,4.88
2017-11-25T12:15:49.837Z,4.91
2017-11-25T12:18:17.294Z,5.05
2017-11-25T12:20:44.758Z,4.83
2017-11-25T12:23:12.465Z,4.92
2017-11-25T12:25:39.933Z,5.11
2017-11-25T12:28:07.415Z,5.17
2017-11-25T12:30:34.903Z,5.07
2017-11-25T12:33:02.368Z,4.96
2017-11-25T12:35:29.833Z,5.07
2017-11-25T12:37:57.303Z,4.94
2017-11-25T12:40:25.386Z,4.76
2017-11-25T12:42:52.866Z,4.76
2017-11-25T12:45:20.319Z,4.85
2017-11-25T12:47:47.790Z,4.54
2017-11-25T12:50:15.283Z,4.86
2017-11-25T12:52:42.755Z,4.74
2017-11-25T12:55:10.239Z,4.76
2017-11-25T12:57:37.695Z,4.59
2017-11-25T13:00:05.166Z,4.62
2017-11-25T13:02:32.653Z,4.53
2017-11-25T13:05:00.108Z,4.44
2017-11-25T13:07:27.579Z,4.67
2017-11-25T13:09:55.065Z,4.74
2017-11-25T13:12:22.542Z,4.74
2017-11-25T13:14:50.025Z,4.79
2017-11-25T13:17:17.488Z,4.92
2017-11-25T13:19:44.951Z,4.88
2017-11-25T13:22:12.449Z,4.93
2017-11-25T13:24:39.929Z,4.91
2017-11-25T13:27:07.386Z,4.84
2017-11-25T13:29:34.861Z,4.85
2017-11-25T13:32:02.346Z,4.91
2017-11-25T13:34:29.831Z,4.93
2017-11-25T13:36:57.287Z,4.93
2017-11-25T13:39:24.771Z,4.97
2017-11-25T13:41:52.268Z,5.00
2017-11-25T13:44:19.720Z,5.01
2017-11-25T13:46:47.214Z,5.05
2017-11-25T13:49:14.680Z,5.07
2017-11-25T13:51:42.158Z,5.13
2017-11-25T13:54:09.615Z,5.00
2017-11-25T13:56:37.098Z,5.04
2017-11-25T13:59:04.609Z,5.06
2017-11-25T14:01:32.067Z,5.11
2017-11-25T14:03:59.537Z,5.14
2017-11-25T14:06:27.014Z,5.21
2017-11-25T14:08:54.513Z,5.16
2017-11-25T14:11:21.979Z,5.11
2017-11-25T14:13:49.470Z,5.13
2017-11-25T14:16:16.937Z,5.18
2017-11-25T14:18:44.409Z,5.20
2017-11-25T14:21:12.075Z,5.17
2017-11-25T14:23:39.533Z,5.28
2017-11-25T14:26:07.023Z,5.29
2017-11-25T14:28:34.510Z,5.28
2017-11-25T14:31:01.992Z,5.34
2017-11-25T14:33:29.452Z,5.37
2017-11-25T14:35:56.949Z,5.37
2017-11-25T14:38:24.454Z,5.40
2017-11-25T14:40:51.937Z,5.39
2017-11-25T14:43:19.423Z,5.38
2017-11-25T14:45:46.912Z,5.35
2017-11-25T14:48:14.494Z,5.32
2017-11-25T14:50:41.955Z,5.25
2017-11-25T14:53:09.413Z,5.27
2017-11-25T14:55:36.908Z,5.28
2017-11-25T14:58:04.395Z,5.21
2017-11-25T15:00:31.856Z,5.24
2017-11-25T15:02:59.315Z,5.26
2017-11-25T15:05:26.798Z,5.27
2017-11-25T15:07:54.257Z,5.36
2017-11-25T15:10:21.891Z,5.31
2017-11-25T15:12:49.383Z,5.38
2017-11-25T15:15:16.864Z,5.40
2017-11-25T15:17:44.346Z,5.47
2017-11-25T15:20:11.885Z,5.49
2017-11-25T15:22:39.374Z,5.50
2017-11-25T15:25:06.835Z,5.60
2017-11-25T15:27:34.296Z,5.64
2017-11-25T15:30:01.778Z,5.71
2017-11-25T15:32:29.241Z,5.79
2017-11-25T15:34:56.726Z,5.78
2017-11-25T15:37:24.303Z,5.85
2017-11-25T15:39:52.183Z,5.89
2017-11-25T15:42:19.674Z,5.85
2017-11-25T15:44:47.146Z,5.87
2017-11-25T15:47:14.922Z,5.94
2017-11-25T15:49:42.393Z,5.96
2017-11-25T15:52:09.904Z,5.96
2017-11-25T15:54:37.370Z,5.92
2017-11-25T15:57:04.850Z,5.95
2017-11-25T15:59:32.338Z,5.95
2017-11-25T16:01:59.817Z,6.06
2017-11-25T16:04:27.300Z,6.02
2017-11-25T16:06:54.758Z,6.04
2017-11-25T16:09:22.250Z,6.01
2017-11-25T16:11:49.714Z,6.09
2017-11-25T16:14:17.175Z,6.09
2017-11-25T16:16:44.651Z,6.16
2017-11-25T16:19:12.103Z,6.09
2017-11-25T16:21:39.607Z,6.07
2017-11-25T16:24:07.798Z,6.14
2017-11-25T16:26:35.324Z,6.16
2017-11-25T16:29:02.839Z,6.14
2017-11-25T16:31:30.302Z,6.12
2017-11-25T16:33:57.788Z,6.14
2017-11-25T16:36:25.519Z,6.16
2017-11-25T16:38:52.972Z,6.20
2017-11-25T16:41:20.448Z,6.24
2017-11-25T16:43:47.903Z,6.19
2017-11-25T16:46:15.385Z,6.24
2017-11-25T16:48:42.873Z,6.17
2017-11-25T16:51:10.346Z,6.22
2017-11-25T16:53:37.822Z,6.28
2017-11-25T16:56:05.282Z,6.25
2017-11-25T16:58:32.750Z,6.27
2017-11-25T17:01:00.229Z,6.31
2017-11-25T17:03:27.688Z,6.33
2017-11-25T17:05:55.162Z,6.39
2017-11-25T17:08:23.506Z,6.42
2017-11-25T17:10:50.980Z,6.47
2017-11-25T17:13:18.488Z,6.45
2017-11-25T17:15:45.989Z,6.53
2017-11-25T17:18:13.434Z,6.47
2017-11-25T17:20:40.943Z,6.51
2017-11-25T17:23:08.400Z,6.55
2017-11-25T17:25:35.858Z,6.54
2017-11-25T17:28:03.330Z,6.67
2017-11-25T17:30:30.785Z,6.57
2017-11-25T17:32:58.259Z,6.61
2017-11-25T17:35:25.721Z,6.67
2017-11-25T17:37:53.202Z,6.61
2017-11-25T17:40:20.669Z,6.56
2017-11-25T17:42:48.167Z,6.57
2017-11-25T17:45:15.617Z,7.03
2017-11-25T17:47:43.068Z,7.25
2017-11-25T17:50:10.600Z,6.64
2017-11-25T17:52:38.361Z,6.64
2017-11-25T17:55:05.840Z,6.57
2017-11-25T17:57:33.307Z,6.59
2017-11-25T18:00:00.970Z,6.55
2017-11-25T18:02:28.446Z,6.56
2017-11-25T18:04:55.938Z,6.49
2017-11-25T18:07:23.420Z,6.48
2017-11-25T18:09:51.079Z,6.54
2017-11-25T18:12:18.535Z,6.49
2017-11-25T18:14:46.010Z,6.50
2017-11-25T18:17:13.924Z,6.42
2017-11-25T18:19:41.388Z,6.40
2017-11-25T18:22:08.869Z,6.41
2017-11-25T18:24:36.660Z,6.43
2017-11-25T18:27:04.137Z,6.39
2017-11-25T18:29:31.931Z,6.43
2017-11-25T18:31:59.382Z,6.42
2017-11-25T18:34:26.845Z,6.35
2017-11-25T18:36:54.322Z,6.39
2017-11-25T18:39:21.817Z,6.39
2017-11-25T18:41:49.275Z,6.33
2017-11-25T18:44:16.756Z,6.44
2017-11-25T18:46:44.246Z,6.34
2017-11-25T18:49:11.750Z,6.30
2017-11-25T18:51:39.223Z,6.30
2017-11-25T18:54:06.703Z,6.31
2017-11-25T18:56:34.168Z,6.38
2017-11-25T18:59:01.744Z,6.29
2017-11-25T19:01:29.223Z,6.28
2017-11-25T19:03:56.717Z,6.25
2017-11-25T19:06:24.186Z,6.30
2017-11-25T19:08:51.759Z,6.26
2017-11-25T19:11:19.260Z,6.23
2017-11-25T19:13:46.931Z,6.21
2017-11-25T19:16:14.391Z,6.25
2017-11-25T19:18:42.334Z,6.26
2017-11-25T19:21:09.870Z,6.27
2017-11-25T19:23:37.338Z,6.28
2017-11-25T19:26:04.798Z,6.21
2017-11-25T19:28:32.266Z,6.19
2017-11-25T19:30:59.734Z,6.19
2017-11-25T19:33:27.222Z,6.18
2017-11-25T19:35:54.695Z,6.18
2017-11-25T19:38:22.178Z,6.15
2017-11-25T19:40:49.635Z,6.12
2017-11-25T19:43:17.112Z,6.10
2017-11-25T19:45:44.829Z,6.14
2017-11-25T19:48:12.286Z,6.18
2017-11-25T19:50:39.923Z,6.16
2017-11-25T19:53:07.404Z,6.02
2017-11-25T19:55:34.982Z,6.13
2017-11-25T19:58:02.443Z,6.16
2017-11-25T20:00:30.603Z,6.14
2017-11-25T20:02:58.131Z,6.12
2017-11-25T20:05:25.594Z,6.20
2017-11-25T20:07:53.052Z,6.09
2017-11-25T20:10:20.519Z,6.15
2017-11-25T20:12:48.015Z,6.05
2017-11-25T20:15:15.484Z,6.12
2017-11-25T20:17:42.963Z,6.08
2017-11-25T20:20:10.437Z,6.08
2017-11-25T20:22:37.929Z,6.06
2017-11-25T20:25:05.402Z,6.08
2017-11-25T20:27:32.871Z,6.16
2017-11-25T20:30:00.360Z,6.11
2017-11-25T20:32:27.828Z,6.21
2017-11-25T20:34:55.566Z,6.28
2017-11-25T20:37:23.020Z,6.14
2017-11-25T20:39:50.790Z,6.28
2017-11-25T20:42:18.244Z,6.19
2017-11-25T20:44:45.737Z,6.13
2017-11-25T20:47:13.198Z,6.09
2017-11-25T20:49:41.718Z,6.02
2017-11-25T20:52:09.491Z,6.05
2017-11-25T20:54:36.968Z,6.06
2017-11-25T20:57:04.428Z,6.01
2017-11-25T20:59:31.934Z,6.04
2017-11-25T21:01:59.415Z,6.04
2017-11-25T21:04:27.096Z,6.03
2017-11-25T21:06:54.737Z,6.05
2017-11-25T21:09:22.220Z,6.06
2017-11-25T21:11:49.670Z,6.00
2017-11-25T21:14:17.152Z,6.11
2017-11-25T21:16:44.614Z,6.02
2017-11-25T21:19:12.085Z,6.02
2017-11-25T21:21:39.575Z,6.03
2017-11-25T21:24:07.025Z,6.00
2017-11-25T21:26:34.484Z,6.03
2017-11-25T21:29:02.339Z,6.00
2017-11-25T21:31:29.816Z,5.97
2017-11-25T21:33:57.500Z,5.99
2017-11-25T21:36:24.946Z,6.02
2017-11-25T21:38:52.395Z,5.99
2017-11-25T21:41:19.869Z,5.97
2017-11-25T21:43:47.359Z,5.96
2017-11-25T21:46:14.859Z,5.93
2017-11-25T21:48:42.329Z,5.95
2017-11-25T21:51:09.826Z,5.87
2017-11-25T21:53:37.296Z,5.86
2017-11-25T21:56:04.768Z,5.87
2017-11-25T21:58:32.251Z,5.79
2017-11-25T22:00:59.703Z,5.86
2017-11-25T22:03:27.163Z,5.89
2017-11-25T22:05:54.649Z,5.90
2017-11-25T22:08:22.137Z,5.85
2017-11-25T22:10:49.604Z,5.77
2017-11-25T22:13:17.071Z,5.83
2017-11-25T22:15:44.558Z,5.97
2017-11-25T22:18:12.035Z,5.95
2017-11-25T22:20:39.483Z,5.80
2017-11-25T22:23:06.967Z,5.89
2017-11-25T22:25:34.434Z,5.98
2017-11-25T22:28:01.939Z,5.93
2017-11-25T22:30:29.463Z,5.96
2017-11-25T22:32:56.979Z,5.96
2017-11-25T22:35:24.750Z,5.99
2017-11-25T22:37:52.488Z,6.05
2017-11-25T22:40:20.011Z,5.95
2017-11-25T22:42:47.478Z,5.97
2017-11-25T22:45:14.965Z,5.93
2017-11-25T22:47:42.457Z,5.95
2017-11-25T22:50:09.959Z,6.02
2017-11-25T22:52:37.506Z,5.87
2017-11-25T22:55:04.986Z,5.88
2017-11-25T22:57:32.540Z,5.96
2017-11-25T23:00:00.479Z,5.97
2017-11-25T23:02:27.996Z,5.90
2017-11-25T23:04:55.470Z,5.83
2017-11-25T23:07:22.919Z,5.89
2017-11-25T23:09:50.402Z,5.84
2017-11-25T23:12:17.865Z,5.82
2017-11-25T23:14:45.328Z,5.84
2017-11-25T23:17:12.797Z,5.77
2017-11-25T23:19:40.271Z,5.82
2017-11-25T23:22:08.026Z,5.92
2017-11-25T23:24:35.476Z,5.76
2017-11-25T23:27:02.928Z,5.74
2017-11-25T23:29:30.407Z,5.77
2017-11-25T23:31:57.870Z,5.69
2017-11-25T23:34:25.353Z,5.84
2017-11-25T23:36:52.816Z,5.84
2017-11-25T23:39:20.299Z,5.83
2017-11-25T23:41:47.771Z,5.79
2017-11-25T23:44:15.494Z,5.77
2017-11-25T23:46:42.964Z,5.83
2017-11-25T23:49:10.417Z,5.81
2017-11-25T23:51:37.899Z,5.78
2017-11-25T23:54:05.370Z,5.80
2017-11-25T23:56:33.800Z,5.83
2017-11-25T23:59:01.266Z,5.76
